sensor_id;sensor_type;location;lat;lon;timestamp;pressure;altitude;pressure_sealevel;temperature;humidity
16793;BME280;8513;42.662;23.350;2024-01-11T00:00:48;95834.06;;;-2.36;60.13
16793;BME280;8513;42.662;23.350;2024-01-11T00:03:13;95834.09;;;-2.38;60.13
16793;BME280;8513;42.662;23.350;2024-01-11T00:05:39;95827.38;;;-2.42;60.56
16793;BME280;8513;42.662;23.350;2024-01-11T00:08:05;95825.22;;;-2.29;59.95
16793;BME280;8513;42.662;23.350;2024-01-11T00:10:30;95823.03;;;-2.40;59.98
16793;BME280;8513;42.662;23.350;2024-01-11T00:12:55;95820.81;;;-2.51;59.88
16793;BME280;8513;42.662;23.350;2024-01-11T00:15:21;95811.94;;;-2.42;60.11
16793;BME280;8513;42.662;23.350;2024-01-11T00:17:46;95820.38;;;-2.38;59.98
16793;BME280;8513;42.662;23.350;2024-01-11T00:20:12;95815.06;;;-2.34;59.71
16793;BME280;8513;42.662;23.350;2024-01-11T00:22:37;95805.34;;;-2.26;59.43
16793;BME280;8513;42.662;23.350;2024-01-11T00:25:03;95820.19;;;-2.32;59.68
16793;BME280;8513;42.662;23.350;2024-01-11T00:27:29;95811.88;;;-2.40;60.05
16793;BME280;8513;42.662;23.350;2024-01-11T00:29:55;95814.28;;;-2.36;60.25
16793;BME280;8513;42.662;23.350;2024-01-11T00:32:20;95810.03;;;-2.37;60.63
16793;BME280;8513;42.662;23.350;2024-01-11T00:34:48;95798.63;;;-2.30;60.22
16793;BME280;8513;42.662;23.350;2024-01-11T00:37:14;95811.88;;;-2.40;60.47
16793;BME280;8513;42.662;23.350;2024-01-11T00:39:39;95804.63;;;-2.29;59.98
16793;BME280;8513;42.662;23.350;2024-01-11T00:42:05;95804.63;;;-2.29;59.74
16793;BME280;8513;42.662;23.350;2024-01-11T00:44:30;95794.59;;;-2.37;59.79
16793;BME280;8513;42.662;23.350;2024-01-11T00:46:56;95804.19;;;-2.42;60.06
16793;BME280;8513;42.662;23.350;2024-01-11T00:49:21;95794.81;;;-2.43;59.89
16793;BME280;8513;42.662;23.350;2024-01-11T00:51:46;95809.41;;;-2.44;60.11
16793;BME280;8513;42.662;23.350;2024-01-11T00:54:12;95799.97;;;-2.43;60.03
16793;BME280;8513;42.662;23.350;2024-01-11T00:56:37;95790.53;;;-2.44;60.03
16793;BME280;8513;42.662;23.350;2024-01-11T00:59:03;95790.53;;;-2.44;59.99
16793;BME280;8513;42.662;23.350;2024-01-11T01:01:28;95800.13;;;-2.48;60.06
16793;BME280;8513;42.662;23.350;2024-01-11T01:03:54;95789.16;;;-2.54;60.31
16793;BME280;8513;42.662;23.350;2024-01-11T01:06:19;95789.25;;;-2.56;60.57
16793;BME280;8513;42.662;23.350;2024-01-11T01:08:45;95789.81;;;-2.73;60.45
16793;BME280;8513;42.662;23.350;2024-01-11T01:11:10;95785.66;;;-2.52;59.93
16793;BME280;8513;42.662;23.350;2024-01-11T01:13:35;95790.34;;;-2.63;60.47
16793;BME280;8513;42.662;23.350;2024-01-11T01:16:01;95795.84;;;-2.49;60.34
16793;BME280;8513;42.662;23.350;2024-01-11T01:18:26;95796.22;;;-2.59;60.27
16793;BME280;8513;42.662;23.350;2024-01-11T01:20:52;95791.75;;;-2.54;60.37
16793;BME280;8513;42.662;23.350;2024-01-11T01:23:18;95780.72;;;-2.58;60.03
16793;BME280;8513;42.662;23.350;2024-01-11T01:25:43;95776.84;;;-2.46;59.78
16793;BME280;8513;42.662;23.350;2024-01-11T01:28:09;95785.97;;;-2.61;60.25
16793;BME280;8513;42.662;23.350;2024-01-11T01:30:34;95788.34;;;-2.55;60.23
16793;BME280;8513;42.662;23.350;2024-01-11T01:32:59;95781.56;;;-2.57;60.30
16793;BME280;8513;42.662;23.350;2024-01-11T01:35:25;95786.97;;;-2.65;60.28
16793;BME280;8513;42.662;23.350;2024-01-11T01:37:50;95779.84;;;-2.82;60.72
16793;BME280;8513;42.662;23.350;2024-01-11T01:40:16;95783.00;;;-2.74;60.32
16793;BME280;8513;42.662;23.350;2024-01-11T01:42:46;95764.72;;;-2.91;60.71
16793;BME280;8513;42.662;23.350;2024-01-11T01:45:11;95760.25;;;-2.86;60.48
16793;BME280;8513;42.662;23.350;2024-01-11T01:47:41;95765.44;;;-2.88;60.39
16793;BME280;8513;42.662;23.350;2024-01-11T01:50:07;95755.44;;;-2.97;60.73
16793;BME280;8513;42.662;23.350;2024-01-11T01:52:35;95757.03;;;-2.93;61.05
16793;BME280;8513;42.662;23.350;2024-01-11T01:55:02;95748.53;;;-2.70;59.50
16793;BME280;8513;42.662;23.350;2024-01-11T01:57:30;95746.91;;;-2.72;60.14
16793;BME280;8513;42.662;23.350;2024-01-11T01:59:58;95748.16;;;-2.84;60.06
16793;BME280;8513;42.662;23.350;2024-01-11T02:02:24;95743.81;;;-2.82;60.14
16793;BME280;8513;42.662;23.350;2024-01-11T02:04:49;95737.88;;;-2.84;60.02
16793;BME280;8513;42.662;23.350;2024-01-11T02:07:15;95740.41;;;-2.82;59.69
16793;BME280;8513;42.662;23.350;2024-01-11T02:09:42;95739.44;;;-2.80;59.59
16793;BME280;8513;42.662;23.350;2024-01-11T02:12:08;95735.25;;;-2.82;59.65
16793;BME280;8513;42.662;23.350;2024-01-11T02:14:37;95738.88;;;-2.88;59.28
16793;BME280;8513;42.662;23.350;2024-01-11T02:17:03;95740.66;;;-2.90;58.77
16793;BME280;8513;42.662;23.350;2024-01-11T02:19:28;95735.25;;;-2.82;58.39
16793;BME280;8513;42.662;23.350;2024-01-11T02:21:55;95741.66;;;-2.94;58.53
16793;BME280;8513;42.662;23.350;2024-01-11T02:24:25;95741.97;;;-3.03;58.34
16793;BME280;8513;42.662;23.350;2024-01-11T02:27:04;95732.78;;;-3.11;58.59
16793;BME280;8513;42.662;23.350;2024-01-11T02:29:30;95738.34;;;-2.98;58.37
16793;BME280;8513;42.662;23.350;2024-01-11T02:31:57;95734.25;;;-3.03;57.99
16793;BME280;8513;42.662;23.350;2024-01-11T02:34:23;95734.38;;;-3.06;58.19
16793;BME280;8513;42.662;23.350;2024-01-11T02:36:50;95734.81;;;-2.95;57.78
16793;BME280;8513;42.662;23.350;2024-01-11T02:39:16;95740.78;;;-2.93;57.80
16793;BME280;8513;42.662;23.350;2024-01-11T02:41:44;95748.19;;;-3.11;58.12
16793;BME280;8513;42.662;23.350;2024-01-11T02:44:09;95730.06;;;-3.06;58.14
16793;BME280;8513;42.662;23.350;2024-01-11T02:46:35;95728.56;;;-3.13;57.79
16793;BME280;8513;42.662;23.350;2024-01-11T02:49:00;95727.94;;;-3.20;58.02
16793;BME280;8513;42.662;23.350;2024-01-11T02:51:26;95720.63;;;-3.32;58.26
16793;BME280;8513;42.662;23.350;2024-01-11T02:53:51;95727.75;;;-3.40;58.50
16793;BME280;8513;42.662;23.350;2024-01-11T02:56:16;95718.16;;;-3.35;57.88
16793;BME280;8513;42.662;23.350;2024-01-11T02:58:42;95714.03;;;-3.39;57.95
16793;BME280;8513;42.662;23.350;2024-01-11T03:01:07;95720.88;;;-3.40;58.29
16793;BME280;8513;42.662;23.350;2024-01-11T03:03:33;95718.97;;;-3.33;58.27
16793;BME280;8513;42.662;23.350;2024-01-11T03:05:58;95718.16;;;-3.35;57.85
16793;BME280;8513;42.662;23.350;2024-01-11T03:08:25;95718.91;;;-3.32;57.84
16793;BME280;8513;42.662;23.350;2024-01-11T03:10:51;95723.06;;;-3.27;57.94
16793;BME280;8513;42.662;23.350;2024-01-11T03:13:16;95721.09;;;-3.46;58.43
16793;BME280;8513;42.662;23.350;2024-01-11T03:15:42;95720.69;;;-3.34;58.27
16793;BME280;8513;42.662;23.350;2024-01-11T03:18:08;95720.03;;;-3.40;58.26
16793;BME280;8513;42.662;23.350;2024-01-11T03:20:34;95714.06;;;-3.41;58.18
16793;BME280;8513;42.662;23.350;2024-01-11T03:22:59;95722.25;;;-3.29;57.80
16793;BME280;8513;42.662;23.350;2024-01-11T03:25:25;95719.59;;;-3.26;57.95
16793;BME280;8513;42.662;23.350;2024-01-11T03:27:50;95712.41;;;-3.42;57.59
16793;BME280;8513;42.662;23.350;2024-01-11T03:30:16;95716.25;;;-3.55;58.66
16793;BME280;8513;42.662;23.350;2024-01-11T03:32:41;95713.56;;;-3.79;59.15
16793;BME280;8513;42.662;23.350;2024-01-11T03:35:08;95712.84;;;-3.82;58.89
16793;BME280;8513;42.662;23.350;2024-01-11T03:37:34;95715.91;;;-3.71;58.76
16793;BME280;8513;42.662;23.350;2024-01-11T03:40:00;95715.50;;;-3.59;58.68
16793;BME280;8513;42.662;23.350;2024-01-11T03:42:25;95712.34;;;-3.67;58.55
16793;BME280;8513;42.662;23.350;2024-01-11T03:44:51;95712.19;;;-3.89;59.27
16793;BME280;8513;42.662;23.350;2024-01-11T03:47:16;95712.66;;;-4.04;59.82
16793;BME280;8513;42.662;23.350;2024-01-11T03:49:42;95716.13;;;-4.05;59.54
16793;BME280;8513;42.662;23.350;2024-01-11T03:52:07;95712.88;;;-4.12;59.85
16793;BME280;8513;42.662;23.350;2024-01-11T03:54:33;95699.88;;;-4.06;59.71
16793;BME280;8513;42.662;23.350;2024-01-11T03:56:58;95704.88;;;-4.31;59.61
16793;BME280;8513;42.662;23.350;2024-01-11T03:59:24;95701.63;;;-4.08;59.07
16793;BME280;8513;42.662;23.350;2024-01-11T04:01:49;95700.13;;;-4.15;59.35
16793;BME280;8513;42.662;23.350;2024-01-11T04:04:15;95700.63;;;-4.30;59.66
16793;BME280;8513;42.662;23.350;2024-01-11T04:06:40;95694.72;;;-4.34;59.42
16793;BME280;8513;42.662;23.350;2024-01-11T04:09:06;95695.69;;;-4.10;59.38
16793;BME280;8513;42.662;23.350;2024-01-11T04:11:31;95700.16;;;-3.88;58.92
16793;BME280;8513;42.662;23.350;2024-01-11T04:13:57;95696.13;;;-3.95;58.50
16793;BME280;8513;42.662;23.350;2024-01-11T04:16:22;95694.09;;;-3.86;58.28
16793;BME280;8513;42.662;23.350;2024-01-11T04:18:47;95693.16;;;-3.83;58.40
16793;BME280;8513;42.662;23.350;2024-01-11T04:21:26;95687.22;;;-3.85;58.33
16793;BME280;8513;42.662;23.350;2024-01-11T04:23:55;95681.66;;;-3.71;58.52
16793;BME280;8513;42.662;23.350;2024-01-11T04:26:21;95681.91;;;-3.79;58.91
16793;BME280;8513;42.662;23.350;2024-01-11T04:28:47;95681.50;;;-3.67;58.61
16793;BME280;8513;42.662;23.350;2024-01-11T04:31:13;95676.34;;;-3.67;58.13
16793;BME280;8513;42.662;23.350;2024-01-11T04:33:43;95683.78;;;-3.58;58.50
16793;BME280;8513;42.662;23.350;2024-01-11T04:36:09;95685.06;;;-3.71;58.42
16793;BME280;8513;42.662;23.350;2024-01-11T04:38:35;95684.13;;;-3.68;58.56
16793;BME280;8513;42.662;23.350;2024-01-11T04:41:00;95690.59;;;-3.57;58.46
16793;BME280;8513;42.662;23.350;2024-01-11T04:43:26;95688.34;;;-3.66;58.93
16793;BME280;8513;42.662;23.350;2024-01-11T04:45:51;95693.16;;;-3.57;58.79
16793;BME280;8513;42.662;23.350;2024-01-11T04:48:17;95690.56;;;-3.55;58.79
16793;BME280;8513;42.662;23.350;2024-01-11T04:50:44;95689.78;;;-3.59;58.67
16793;BME280;8513;42.662;23.350;2024-01-11T04:53:09;95694.06;;;-3.58;58.55
16793;BME280;8513;42.662;23.350;2024-01-11T04:55:35;95683.78;;;-3.58;58.43
16793;BME280;8513;42.662;23.350;2024-01-11T04:58:14;95695.72;;;-3.83;58.74
16793;BME280;8513;42.662;23.350;2024-01-11T05:00:39;95689.09;;;-3.90;59.35
16793;BME280;8513;42.662;23.350;2024-01-11T05:03:05;95702.53;;;-4.09;59.45
16793;BME280;8513;42.662;23.350;2024-01-11T05:05:30;95689.78;;;-3.85;58.51
16793;BME280;8513;42.662;23.350;2024-01-11T05:07:57;95691.47;;;-4.11;58.92
16793;BME280;8513;42.662;23.350;2024-01-11T05:10:22;95699.56;;;-3.96;59.27
16793;BME280;8513;42.662;23.350;2024-01-11T05:12:47;95696.31;;;-4.02;59.15
16793;BME280;8513;42.662;23.350;2024-01-11T05:15:13;95697.81;;;-3.94;59.31
16793;BME280;8513;42.662;23.350;2024-01-11T05:17:38;95689.59;;;-4.06;59.01
16793;BME280;8513;42.662;23.350;2024-01-11T05:20:04;95688.00;;;-4.10;58.96
16793;BME280;8513;42.662;23.350;2024-01-11T05:22:30;95685.00;;;-4.24;59.80
16793;BME280;8513;42.662;23.350;2024-01-11T05:24:56;95681.78;;;-4.03;59.59
16793;BME280;8513;42.662;23.350;2024-01-11T05:27:21;95669.41;;;-4.18;59.55
16793;BME280;8513;42.662;23.350;2024-01-11T05:29:47;95671.63;;;-4.06;59.64
16793;BME280;8513;42.662;23.350;2024-01-11T05:32:12;95665.00;;;-3.86;59.02
16793;BME280;8513;42.662;23.350;2024-01-11T05:34:38;95657.59;;;-3.95;58.86
16793;BME280;8513;42.662;23.350;2024-01-11T05:37:03;95671.81;;;-3.85;58.73
16793;BME280;8513;42.662;23.350;2024-01-11T05:39:29;95660.00;;;-3.91;58.59
16793;BME280;8513;42.662;23.350;2024-01-11T05:41:54;95664.84;;;-3.82;58.55
16793;BME280;8513;42.662;23.350;2024-01-11T05:44:20;95664.63;;;-3.74;58.40
16793;BME280;8513;42.662;23.350;2024-01-11T05:46:45;95661.44;;;-3.82;58.84
16793;BME280;8513;42.662;23.350;2024-01-11T05:49:10;95654.81;;;-3.89;58.98
16793;BME280;8513;42.662;23.350;2024-01-11T05:51:36;95659.97;;;-3.89;58.86
16793;BME280;8513;42.662;23.350;2024-01-11T05:54:01;95655.19;;;-4.02;59.35
16793;BME280;8513;42.662;23.350;2024-01-11T05:56:27;95651.19;;;-4.10;59.66
16793;BME280;8513;42.662;23.350;2024-01-11T05:58:52;95653.31;;;-3.96;59.19
16793;BME280;8513;42.662;23.350;2024-01-11T06:01:18;95652.50;;;-3.97;59.42
16793;BME280;8513;42.662;23.350;2024-01-11T06:03:43;95640.25;;;-3.89;59.38
16793;BME280;8513;42.662;23.350;2024-01-11T06:06:09;95651.53;;;-3.93;59.25
16793;BME280;8513;42.662;23.350;2024-01-11T06:08:34;95651.59;;;-3.69;59.29
16793;BME280;8513;42.662;23.350;2024-01-11T06:11:00;95642.78;;;-3.87;59.23
16793;BME280;8513;42.662;23.350;2024-01-11T06:13:25;95644.81;;;-3.99;59.54
16793;BME280;8513;42.662;23.350;2024-01-11T06:15:51;95650.22;;;-3.80;59.52
16793;BME280;8513;42.662;23.350;2024-01-11T06:18:17;95644.31;;;-3.82;59.45
16793;BME280;8513;42.662;23.350;2024-01-11T06:20:42;95646.66;;;-3.75;59.10
16793;BME280;8513;42.662;23.350;2024-01-11T06:23:08;95652.59;;;-3.73;59.21
16793;BME280;8513;42.662;23.350;2024-01-11T06:25:33;95650.22;;;-3.80;59.30
16793;BME280;8513;42.662;23.350;2024-01-11T06:27:59;95646.53;;;-3.71;58.92
16793;BME280;8513;42.662;23.350;2024-01-11T06:30:24;95641.06;;;-3.88;59.30
16793;BME280;8513;42.662;23.350;2024-01-11T06:32:50;95639.78;;;-3.75;59.43
16793;BME280;8513;42.662;23.350;2024-01-11T06:35:16;95627.97;;;-3.81;59.28
16793;BME280;8513;42.662;23.350;2024-01-11T06:37:41;95635.13;;;-3.64;59.26
16793;BME280;8513;42.662;23.350;2024-01-11T06:40:07;95627.38;;;-3.62;59.02
16793;BME280;8513;42.662;23.350;2024-01-11T06:42:33;95622.22;;;-3.62;59.07
16793;BME280;8513;42.662;23.350;2024-01-11T06:44:59;95628.31;;;-3.65;59.13
16793;BME280;8513;42.662;23.350;2024-01-11T06:47:25;95631.69;;;-3.63;59.27
16793;BME280;8513;42.662;23.350;2024-01-11T06:49:51;95620.81;;;-3.71;59.43
16793;BME280;8513;42.662;23.350;2024-01-11T06:52:16;95618.97;;;-3.67;59.50
16793;BME280;8513;42.662;23.350;2024-01-11T06:54:42;95628.28;;;-3.38;58.48
16793;BME280;8513;42.662;23.350;2024-01-11T06:57:07;95617.09;;;-3.37;58.76
16793;BME280;8513;42.662;23.350;2024-01-11T06:59:33;95623.28;;;-3.18;58.52
16793;BME280;8513;42.662;23.350;2024-01-11T07:01:59;95619.25;;;-3.25;58.50
16793;BME280;8513;42.662;23.350;2024-01-11T07:04:24;95623.88;;;-3.11;58.11
16793;BME280;8513;42.662;23.350;2024-01-11T07:06:50;95615.78;;;-3.00;57.66
16793;BME280;8513;42.662;23.350;2024-01-11T07:09:15;95624.94;;;-3.17;58.26
16793;BME280;8513;42.662;23.350;2024-01-11T07:11:42;95630.09;;;-3.17;58.00
16793;BME280;8513;42.662;23.350;2024-01-11T07:14:08;95616.72;;;-3.51;58.99
16793;BME280;8513;42.662;23.350;2024-01-11T07:16:33;95623.50;;;-3.49;59.81
16793;BME280;8513;42.662;23.350;2024-01-11T07:18:59;95615.84;;;-3.25;59.27
16793;BME280;8513;42.662;23.350;2024-01-11T07:21:24;95624.44;;;-3.03;58.11
16793;BME280;8513;42.662;23.350;2024-01-11T07:23:59;95618.97;;;-3.42;59.32
16793;BME280;8513;42.662;23.350;2024-01-11T07:26:25;95624.59;;;-3.07;58.67
16793;BME280;8513;42.662;23.350;2024-01-11T07:28:51;95618.88;;;-3.39;59.40
16793;BME280;8513;42.662;23.350;2024-01-11T07:31:16;95611.69;;;-3.29;59.43
16793;BME280;8513;42.662;23.350;2024-01-11T07:33:42;95617.25;;;-2.93;58.49
16793;BME280;8513;42.662;23.350;2024-01-11T07:36:07;95613.72;;;-2.91;57.71
16793;BME280;8513;42.662;23.350;2024-01-11T07:38:34;95615.38;;;-2.66;57.38
16793;BME280;8513;42.662;23.350;2024-01-11T07:41:00;95622.56;;;-2.74;57.84
16793;BME280;8513;42.662;23.350;2024-01-11T07:43:27;95618.75;;;-2.64;57.22
16793;BME280;8513;42.662;23.350;2024-01-11T07:45:54;95621.19;;;-2.37;56.62
16793;BME280;8513;42.662;23.350;2024-01-11T07:48:22;95616.69;;;-2.32;55.43
16793;BME280;8513;42.662;23.350;2024-01-11T07:50:48;95615.53;;;-2.47;55.89
16793;BME280;8513;42.662;23.350;2024-01-11T07:53:13;95611.84;;;-2.40;56.25
16793;BME280;8513;42.662;23.350;2024-01-11T07:55:40;95619.03;;;-2.26;55.83
16793;BME280;8513;42.662;23.350;2024-01-11T07:58:05;95619.16;;;-2.29;55.72
16793;BME280;8513;42.662;23.350;2024-01-11T08:00:31;95607.38;;;-2.14;54.87
16793;BME280;8513;42.662;23.350;2024-01-11T08:02:57;95607.50;;;-2.17;55.15
16793;BME280;8513;42.662;23.350;2024-01-11T08:05:22;95604.94;;;-2.17;54.80
16793;BME280;8513;42.662;23.350;2024-01-11T08:07:48;95607.81;;;-2.03;54.84
16793;BME280;8513;42.662;23.350;2024-01-11T08:10:14;95598.09;;;-1.96;55.34
16793;BME280;8513;42.662;23.350;2024-01-11T08:12:39;95598.78;;;-1.93;54.71
16793;BME280;8513;42.662;23.350;2024-01-11T08:15:05;95597.06;;;-1.92;54.57
16793;BME280;8513;42.662;23.350;2024-01-11T08:17:31;95601.28;;;-1.69;54.34
16793;BME280;8513;42.662;23.350;2024-01-11T08:19:56;95599.53;;;-1.69;54.47
16793;BME280;8513;42.662;23.350;2024-01-11T08:22:22;95588.25;;;-1.66;53.55
16793;BME280;8513;42.662;23.350;2024-01-11T08:24:48;95586.38;;;-1.42;53.05
16793;BME280;8513;42.662;23.350;2024-01-11T08:27:13;95578.44;;;-1.58;52.84
16793;BME280;8513;42.662;23.350;2024-01-11T08:29:42;95589.09;;;-1.66;53.06
16793;BME280;8513;42.662;23.350;2024-01-11T08:32:08;95590.91;;;-1.68;53.64
16793;BME280;8513;42.662;23.350;2024-01-11T08:34:34;95589.72;;;-1.61;53.77
16793;BME280;8513;42.662;23.350;2024-01-11T08:36:59;95588.22;;;-1.44;53.39
16793;BME280;8513;42.662;23.350;2024-01-11T08:39:24;95582.72;;;-1.57;53.55
16793;BME280;8513;42.662;23.350;2024-01-11T08:41:50;95593.97;;;-1.39;53.43
16793;BME280;8513;42.662;23.350;2024-01-11T08:44:15;95585.03;;;-1.30;53.41
16793;BME280;8513;42.662;23.350;2024-01-11T08:46:41;95586.56;;;-1.26;53.22
16793;BME280;8513;42.662;23.350;2024-01-11T08:49:07;95588.91;;;-1.20;52.98
16793;BME280;8513;42.662;23.350;2024-01-11T08:51:33;95582.19;;;-1.45;52.50
16793;BME280;8513;42.662;23.350;2024-01-11T08:53:59;95586.25;;;-1.80;53.83
16793;BME280;8513;42.662;23.350;2024-01-11T08:56:25;95576.59;;;-1.54;53.65
16793;BME280;8513;42.662;23.350;2024-01-11T08:58:50;95575.81;;;-1.36;53.84
16793;BME280;8513;42.662;23.350;2024-01-11T09:01:16;95569.78;;;-1.37;53.55
16793;BME280;8513;42.662;23.350;2024-01-11T09:03:43;95571.72;;;-1.21;53.01
16793;BME280;8513;42.662;23.350;2024-01-11T09:06:08;95563.38;;;-1.07;53.14
16793;BME280;8513;42.662;23.350;2024-01-11T09:08:34;95553.34;;;-0.95;52.97
16793;BME280;8513;42.662;23.350;2024-01-11T09:10:59;95557.13;;;-0.64;52.07
16793;BME280;8513;42.662;23.350;2024-01-11T09:13:26;95552.44;;;-0.75;52.02
16793;BME280;8513;42.662;23.350;2024-01-11T09:15:52;95551.72;;;-0.59;51.35
16793;BME280;8513;42.662;23.350;2024-01-11T09:18:18;95546.72;;;-0.81;51.34
16793;BME280;8513;42.662;23.350;2024-01-11T09:20:43;95541.53;;;-0.62;50.83
16793;BME280;8513;42.662;23.350;2024-01-11T09:23:09;95540.19;;;-0.52;50.74
16793;BME280;8513;42.662;23.350;2024-01-11T09:25:35;95542.47;;;-0.46;50.48
16793;BME280;8513;42.662;23.350;2024-01-11T09:28:00;95538.56;;;-0.72;51.05
16793;BME280;8513;42.662;23.350;2024-01-11T09:30:26;95526.97;;;-0.46;50.45
16793;BME280;8513;42.662;23.350;2024-01-11T09:32:52;95531.16;;;-0.43;50.03
16793;BME280;8513;42.662;23.350;2024-01-11T09:35:17;95529.25;;;-0.76;51.18
16793;BME280;8513;42.662;23.350;2024-01-11T09:37:43;95520.66;;;-0.58;50.79
16793;BME280;8513;42.662;23.350;2024-01-11T09:40:11;95515.28;;;-0.53;50.89
16793;BME280;8513;42.662;23.350;2024-01-11T09:42:37;95507.66;;;-0.20;50.52
16793;BME280;8513;42.662;23.350;2024-01-11T09:45:13;95503.53;;;-0.41;50.91
16793;BME280;8513;42.662;23.350;2024-01-11T09:47:39;95495.94;;;-0.27;50.67
16793;BME280;8513;42.662;23.350;2024-01-11T09:50:06;95488.50;;;-0.16;50.63
16793;BME280;8513;42.662;23.350;2024-01-11T09:52:32;95481.34;;;-0.11;50.58
16793;BME280;8513;42.662;23.350;2024-01-11T09:55:01;95475.63;;;0.35;48.98
16793;BME280;8513;42.662;23.350;2024-01-11T09:57:31;95473.44;;;-0.25;49.65
16793;BME280;8513;42.662;23.350;2024-01-11T10:00:04;95469.88;;;-0.23;50.51
16793;BME280;8513;42.662;23.350;2024-01-11T10:02:32;95463.72;;;-0.20;51.26
16793;BME280;8513;42.662;23.350;2024-01-11T10:04:58;95458.09;;;0.07;50.46
16793;BME280;8513;42.662;23.350;2024-01-11T10:07:24;95453.69;;;0.09;50.14
16793;BME280;8513;42.662;23.350;2024-01-11T10:09:52;95452.44;;;0.16;49.65
16793;BME280;8513;42.662;23.350;2024-01-11T10:12:18;95443.28;;;0.26;49.70
16793;BME280;8513;42.662;23.350;2024-01-11T10:14:46;95442.00;;;0.35;50.00
16793;BME280;8513;42.662;23.350;2024-01-11T10:17:12;95439.34;;;0.52;49.52
16793;BME280;8513;42.662;23.350;2024-01-11T10:19:38;95435.69;;;0.72;50.11
16793;BME280;8513;42.662;23.350;2024-01-11T10:22:03;95427.22;;;0.86;49.36
16793;BME280;8513;42.662;23.350;2024-01-11T10:24:30;95422.34;;;0.96;48.89
16793;BME280;8513;42.662;23.350;2024-01-11T10:26:56;95420.09;;;1.21;49.76
16793;BME280;8513;42.662;23.350;2024-01-11T10:29:22;95409.72;;;1.37;47.93
16793;BME280;8513;42.662;23.350;2024-01-11T10:31:49;95405.91;;;1.28;47.31
16793;BME280;8513;42.662;23.350;2024-01-11T10:34:15;95403.16;;;1.46;47.39
16793;BME280;8513;42.662;23.350;2024-01-11T10:36:41;95397.41;;;1.71;46.58
16793;BME280;8513;42.662;23.350;2024-01-11T10:39:07;95401.91;;;1.83;45.36
16793;BME280;8513;42.662;23.350;2024-01-11T10:41:39;95398.78;;;1.62;46.70
16793;BME280;8513;42.662;23.350;2024-01-11T10:44:13;95382.22;;;1.79;45.88
16793;BME280;8513;42.662;23.350;2024-01-11T10:46:42;95390.63;;;1.68;46.58
16793;BME280;8513;42.662;23.350;2024-01-11T10:49:11;95373.75;;;1.77;46.71
16793;BME280;8513;42.662;23.350;2024-01-11T10:51:39;95370.50;;;1.88;47.39
16793;BME280;8513;42.662;23.350;2024-01-11T10:54:07;95383.97;;;2.09;47.17
16793;BME280;8513;42.662;23.350;2024-01-11T10:56:33;95383.03;;;2.24;47.34
16793;BME280;8513;42.662;23.350;2024-01-11T10:59:00;95370.97;;;2.37;46.47
16793;BME280;8513;42.662;23.350;2024-01-11T11:01:26;95364.97;;;2.23;46.53
16793;BME280;8513;42.662;23.350;2024-01-11T11:03:54;95355.50;;;2.21;47.42
16793;BME280;8513;42.662;23.350;2024-01-11T11:06:22;95361.63;;;2.35;47.91
16793;BME280;8513;42.662;23.350;2024-01-11T11:08:52;95341.31;;;2.56;47.66
16793;BME280;8513;42.662;23.350;2024-01-11T11:11:19;95343.28;;;2.52;47.43
16793;BME280;8513;42.662;23.350;2024-01-11T11:13:47;95339.66;;;2.55;47.46
16793;BME280;8513;42.662;23.350;2024-01-11T11:16:15;95337.69;;;2.58;48.09
16793;BME280;8513;42.662;23.350;2024-01-11T11:18:41;95321.38;;;2.56;48.59
16793;BME280;8513;42.662;23.350;2024-01-11T11:21:09;95311.38;;;2.50;46.78
16793;BME280;8513;42.662;23.350;2024-01-11T11:23:38;95314.91;;;2.49;46.02
16793;BME280;8513;42.662;23.350;2024-01-11T11:26:06;95307.81;;;2.65;47.31
16793;BME280;8513;42.662;23.350;2024-01-11T11:28:33;95297.31;;;2.67;46.10
16793;BME280;8513;42.662;23.350;2024-01-11T11:31:00;95288.16;;;2.61;45.84
16793;BME280;8513;42.662;23.350;2024-01-11T11:33:29;95278.19;;;2.55;47.11
16793;BME280;8513;42.662;23.350;2024-01-11T11:35:59;95285.34;;;2.52;47.13
16793;BME280;8513;42.662;23.350;2024-01-11T11:38:29;95278.44;;;2.65;46.11
16793;BME280;8513;42.662;23.350;2024-01-11T11:40:57;95266.03;;;2.56;45.63
16793;BME280;8513;42.662;23.350;2024-01-11T11:43:23;95273.31;;;2.36;46.32
16793;BME280;8513;42.662;23.350;2024-01-11T11:45:50;95272.75;;;2.31;46.78
16793;BME280;8513;42.662;23.350;2024-01-11T11:48:47;95267.31;;;2.63;45.63
16793;BME280;8513;42.662;23.350;2024-01-11T11:51:16;95257.06;;;2.47;47.28
16793;BME280;8513;42.662;23.350;2024-01-11T11:53:43;95256.25;;;2.74;46.69
16793;BME280;8513;42.662;23.350;2024-01-11T11:56:10;95258.56;;;2.78;47.40
16793;BME280;8513;42.662;23.350;2024-01-11T11:58:36;95256.09;;;2.90;46.16
16793;BME280;8513;42.662;23.350;2024-01-11T12:01:03;95242.06;;;2.92;45.80
16793;BME280;8513;42.662;23.350;2024-01-11T12:03:32;95242.69;;;2.96;45.97
16793;BME280;8513;42.662;23.350;2024-01-11T12:05:59;95240.53;;;3.02;46.92
16793;BME280;8513;42.662;23.350;2024-01-11T12:08:25;95233.16;;;3.09;46.49
16793;BME280;8513;42.662;23.350;2024-01-11T12:10:51;95223.31;;;3.27;46.33
16793;BME280;8513;42.662;23.350;2024-01-11T12:13:18;95236.63;;;3.35;46.14
16793;BME280;8513;42.662;23.350;2024-01-11T12:15:43;95215.63;;;3.38;46.70
16793;BME280;8513;42.662;23.350;2024-01-11T12:18:09;95219.59;;;3.57;47.03
16793;BME280;8513;42.662;23.350;2024-01-11T12:20:35;95215.00;;;3.60;46.63
16793;BME280;8513;42.662;23.350;2024-01-11T12:23:00;95210.31;;;3.52;46.13
16793;BME280;8513;42.662;23.350;2024-01-11T12:25:28;95217.81;;;3.57;46.02
16793;BME280;8513;42.662;23.350;2024-01-11T12:27:54;95213.66;;;3.54;46.36
16793;BME280;8513;42.662;23.350;2024-01-11T12:30:22;95199.84;;;3.41;46.25
16793;BME280;8513;42.662;23.350;2024-01-11T12:32:49;95181.03;;;3.50;46.86
16793;BME280;8513;42.662;23.350;2024-01-11T12:35:15;95192.25;;;3.64;46.30
16793;BME280;8513;42.662;23.350;2024-01-11T12:37:40;95184.97;;;3.56;45.48
16793;BME280;8513;42.662;23.350;2024-01-11T12:40:06;95183.94;;;3.46;46.14
16793;BME280;8513;42.662;23.350;2024-01-11T12:42:35;95171.97;;;3.43;46.11
16793;BME280;8513;42.662;23.350;2024-01-11T12:45:01;95176.13;;;3.59;46.29
16793;BME280;8513;42.662;23.350;2024-01-11T12:47:26;95174.66;;;3.67;46.73
16793;BME280;8513;42.662;23.350;2024-01-11T12:49:52;95165.28;;;3.90;46.50
16793;BME280;8513;42.662;23.350;2024-01-11T12:52:19;95156.50;;;3.91;46.15
16793;BME280;8513;42.662;23.350;2024-01-11T12:54:52;95159.63;;;3.96;45.99
16793;BME280;8513;42.662;23.350;2024-01-11T12:57:18;95155.22;;;4.10;46.03